sensor_id;sensor_type;location;lat;lon;timestamp;P1;durP1;ratioP1;P2;durP2;ratioP2
66118;SDS011;52912;48.564;9.302;2023-08-06T00:01:29;5.95;;;3.00;;
66118;SDS011;52912;48.564;9.302;2023-08-06T00:03:54;5.38;;;2.75;;
66118;SDS011;52912;48.564;9.302;2023-08-06T00:06:21;4.47;;;2.70;;
66118;SDS011;52912;48.564;9.302;2023-08-06T00:08:47;4.78;;;2.85;;
66118;SDS011;52912;48.564;9.302;2023-08-06T00:11:12;7.03;;;2.45;;
66118;SDS011;52912;48.564;9.302;2023-08-06T00:13:37;5.50;;;2.67;;
66118;SDS011;52912;48.564;9.302;2023-08-06T00:16:09;5.40;;;2.70;;
66118;SDS011;52912;48.564;9.302;2023-08-06T00:18:35;3.42;;;2.42;;
66118;SDS011;52912;48.564;9.302;2023-08-06T00:21:01;5.82;;;2.65;;
66118;SDS011;52912;48.564;9.302;2023-08-06T00:23:28;3.50;;;2.50;;
66118;SDS011;52912;48.564;9.302;2023-08-06T00:25:53;4.95;;;2.65;;
66118;SDS011;52912;48.564;9.302;2023-08-06T00:28:18;4.65;;;2.42;;
66118;SDS011;52912;48.564;9.302;2023-08-06T00:30:44;2.78;;;2.10;;
66118;SDS011;52912;48.564;9.302;2023-08-06T00:33:09;4.13;;;2.33;;
66118;SDS011;52912;48.564;9.302;2023-08-06T00:35:35;3.17;;;2.30;;
66118;SDS011;52912;48.564;9.302;2023-08-06T00:38:00;4.90;;;2.50;;
66118;SDS011;52912;48.564;9.302;2023-08-06T00:40:27;3.60;;;2.30;;
66118;SDS011;52912;48.564;9.302;2023-08-06T00:42:53;5.75;;;2.55;;
66118;SDS011;52912;48.564;9.302;2023-08-06T00:45:18;5.28;;;2.70;;
66118;SDS011;52912;48.564;9.302;2023-08-06T00:47:43;5.68;;;2.67;;
66118;SDS011;52912;48.564;9.302;2023-08-06T00:50:09;3.75;;;2.30;;
66118;SDS011;52912;48.564;9.302;2023-08-06T00:52:35;4.00;;;2.55;;
66118;SDS011;52912;48.564;9.302;2023-08-06T00:55:01;5.45;;;2.55;;
66118;SDS011;52912;48.564;9.302;2023-08-06T00:57:28;3.90;;;2.60;;
66118;SDS011;52912;48.564;9.302;2023-08-06T00:59:54;5.28;;;2.38;;
66118;SDS011;52912;48.564;9.302;2023-08-06T01:02:20;3.58;;;2.53;;
66118;SDS011;52912;48.564;9.302;2023-08-06T01:04:45;3.22;;;2.20;;
66118;SDS011;52912;48.564;9.302;2023-08-06T01:07:13;3.55;;;2.38;;
66118;SDS011;52912;48.564;9.302;2023-08-06T01:09:57;6.40;;;2.53;;
66118;SDS011;52912;48.564;9.302;2023-08-06T01:12:38;3.55;;;2.20;;
66118;SDS011;52912;48.564;9.302;2023-08-06T01:15:11;7.00;;;2.50;;
66118;SDS011;52912;48.564;9.302;2023-08-06T01:17:42;5.22;;;2.20;;
66118;SDS011;52912;48.564;9.302;2023-08-06T01:20:10;5.82;;;2.30;;
66118;SDS011;52912;48.564;9.302;2023-08-06T01:22:37;2.45;;;2.00;;
66118;SDS011;52912;48.564;9.302;2023-08-06T01:25:02;4.53;;;2.20;;
66118;SDS011;52912;48.564;9.302;2023-08-06T01:27:30;3.63;;;1.98;;
66118;SDS011;52912;48.564;9.302;2023-08-06T01:30:00;4.07;;;2.00;;
66118;SDS011;52912;48.564;9.302;2023-08-06T01:32:28;3.00;;;1.90;;
66118;SDS011;52912;48.564;9.302;2023-08-06T01:34:56;5.38;;;1.88;;
66118;SDS011;52912;48.564;9.302;2023-08-06T01:37:24;4.40;;;2.08;;
66118;SDS011;52912;48.564;9.302;2023-08-06T01:39:51;2.47;;;1.80;;
66118;SDS011;52912;48.564;9.302;2023-08-06T01:42:16;8.18;;;2.13;;
66118;SDS011;52912;48.564;9.302;2023-08-06T01:44:42;3.33;;;1.90;;
66118;SDS011;52912;48.564;9.302;2023-08-06T01:47:07;7.35;;;2.28;;
66118;SDS011;52912;48.564;9.302;2023-08-06T01:49:32;2.90;;;1.80;;
66118;SDS011;52912;48.564;9.302;2023-08-06T01:51:58;4.53;;;2.10;;
66118;SDS011;52912;48.564;9.302;2023-08-06T01:54:23;3.17;;;1.85;;
66118;SDS011;52912;48.564;9.302;2023-08-06T01:56:50;3.78;;;2.08;;
66118;SDS011;52912;48.564;9.302;2023-08-06T01:59:16;3.85;;;2.10;;
66118;SDS011;52912;48.564;9.302;2023-08-06T02:01:41;4.70;;;1.95;;
66118;SDS011;52912;48.564;9.302;2023-08-06T02:04:06;3.22;;;1.80;;
66118;SDS011;52912;48.564;9.302;2023-08-06T02:06:32;4.10;;;2.05;;
66118;SDS011;52912;48.564;9.302;2023-08-06T02:08:57;4.97;;;2.00;;
66118;SDS011;52912;48.564;9.302;2023-08-06T02:11:23;8.25;;;2.10;;
66118;SDS011;52912;48.564;9.302;2023-08-06T02:13:49;3.15;;;1.80;;
66118;SDS011;52912;48.564;9.302;2023-08-06T02:16:15;5.22;;;2.15;;
66118;SDS011;52912;48.564;9.302;2023-08-06T02:18:40;4.05;;;2.10;;
66118;SDS011;52912;48.564;9.302;2023-08-06T02:21:06;4.80;;;2.00;;
66118;SDS011;52912;48.564;9.302;2023-08-06T02:23:31;3.97;;;2.10;;
66118;SDS011;52912;48.564;9.302;2023-08-06T02:25:57;5.32;;;2.10;;
66118;SDS011;52912;48.564;9.302;2023-08-06T02:28:24;4.43;;;2.00;;
66118;SDS011;52912;48.564;9.302;2023-08-06T02:30:51;5.05;;;2.00;;
66118;SDS011;52912;48.564;9.302;2023-08-06T02:33:16;4.00;;;1.88;;
66118;SDS011;52912;48.564;9.302;2023-08-06T02:35:42;4.65;;;2.08;;
66118;SDS011;52912;48.564;9.302;2023-08-06T02:38:07;4.82;;;2.20;;
66118;SDS011;52912;48.564;9.302;2023-08-06T02:40:33;4.18;;;2.22;;
66118;SDS011;52912;48.564;9.302;2023-08-06T02:42:58;4.68;;;2.00;;
66118;SDS011;52912;48.564;9.302;2023-08-06T02:45:24;3.95;;;1.95;;
66118;SDS011;52912;48.564;9.302;2023-08-06T02:47:50;4.25;;;2.20;;
66118;SDS011;52912;48.564;9.302;2023-08-06T02:50:16;2.30;;;1.70;;
66118;SDS011;52912;48.564;9.302;2023-08-06T02:52:41;4.90;;;1.83;;
66118;SDS011;52912;48.564;9.302;2023-08-06T02:55:07;3.85;;;1.70;;
66118;SDS011;52912;48.564;9.302;2023-08-06T02:57:32;5.15;;;2.10;;
66118;SDS011;52912;48.564;9.302;2023-08-06T02:59:58;3.45;;;1.67;;
66118;SDS011;52912;48.564;9.302;2023-08-06T03:02:23;4.18;;;2.13;;
66118;SDS011;52912;48.564;9.302;2023-08-06T03:04:50;2.92;;;1.73;;
66118;SDS011;52912;48.564;9.302;2023-08-06T03:07:16;2.75;;;1.65;;
66118;SDS011;52912;48.564;9.302;2023-08-06T03:09:41;6.68;;;1.80;;
66118;SDS011;52912;48.564;9.302;2023-08-06T03:12:07;3.28;;;1.48;;
66118;SDS011;52912;48.564;9.302;2023-08-06T03:14:33;3.17;;;1.52;;
66118;SDS011;52912;48.564;9.302;2023-08-06T03:16:58;2.38;;;1.45;;
66118;SDS011;52912;48.564;9.302;2023-08-06T03:19:24;2.40;;;1.63;;
66118;SDS011;52912;48.564;9.302;2023-08-06T03:21:50;2.03;;;1.45;;
66118;SDS011;52912;48.564;9.302;2023-08-06T03:24:16;3.58;;;1.58;;
66118;SDS011;52912;48.564;9.302;2023-08-06T03:26:41;3.08;;;1.45;;
66118;SDS011;52912;48.564;9.302;2023-08-06T03:29:07;2.80;;;1.73;;
66118;SDS011;52912;48.564;9.302;2023-08-06T03:31:32;5.30;;;1.70;;
66118;SDS011;52912;48.564;9.302;2023-08-06T03:33:58;2.05;;;1.40;;
66118;SDS011;52912;48.564;9.302;2023-08-06T03:36:23;4.07;;;1.45;;
66118;SDS011;52912;48.564;9.302;2023-08-06T03:38:50;2.65;;;1.27;;
66118;SDS011;52912;48.564;9.302;2023-08-06T03:41:15;3.00;;;1.58;;
66118;SDS011;52912;48.564;9.302;2023-08-06T03:43:41;3.72;;;1.50;;
66118;SDS011;52912;48.564;9.302;2023-08-06T03:46:06;2.10;;;1.30;;
66118;SDS011;52912;48.564;9.302;2023-08-06T03:48:31;3.58;;;1.67;;
66118;SDS011;52912;48.564;9.302;2023-08-06T03:50:57;2.30;;;1.50;;
66118;SDS011;52912;48.564;9.302;2023-08-06T03:53:22;4.47;;;1.60;;
66118;SDS011;52912;48.564;9.302;2023-08-06T03:55:49;5.07;;;1.60;;
66118;SDS011;52912;48.564;9.302;2023-08-06T03:58:15;2.92;;;1.60;;
66118;SDS011;52912;48.564;9.302;2023-08-06T04:00:40;6.03;;;1.48;;
66118;SDS011;52912;48.564;9.302;2023-08-06T04:03:05;2.88;;;1.60;;
66118;SDS011;52912;48.564;9.302;2023-08-06T04:05:31;3.60;;;1.48;;
66118;SDS011;52912;48.564;9.302;2023-08-06T04:07:56;4.63;;;1.55;;
66118;SDS011;52912;48.564;9.302;2023-08-06T04:10:22;2.85;;;1.55;;
66118;SDS011;52912;48.564;9.302;2023-08-06T04:12:49;2.83;;;1.60;;
66118;SDS011;52912;48.564;9.302;2023-08-06T04:15:14;3.60;;;1.40;;
66118;SDS011;52912;48.564;9.302;2023-08-06T04:17:40;7.07;;;1.67;;
66118;SDS011;52912;48.564;9.302;2023-08-06T04:20:06;3.55;;;1.42;;
66118;SDS011;52912;48.564;9.302;2023-08-06T04:22:32;3.25;;;1.60;;
66118;SDS011;52912;48.564;9.302;2023-08-06T04:24:57;4.85;;;1.45;;
66118;SDS011;52912;48.564;9.302;2023-08-06T04:27:23;1.60;;;1.00;;
66118;SDS011;52912;48.564;9.302;2023-08-06T04:29:49;2.55;;;1.40;;
66118;SDS011;52912;48.564;9.302;2023-08-06T04:32:15;2.83;;;1.40;;
66118;SDS011;52912;48.564;9.302;2023-08-06T04:34:40;2.08;;;1.20;;
66118;SDS011;52912;48.564;9.302;2023-08-06T04:37:06;3.97;;;1.42;;
66118;SDS011;52912;48.564;9.302;2023-08-06T04:39:31;4.03;;;1.30;;
66118;SDS011;52912;48.564;9.302;2023-08-06T04:41:57;1.92;;;1.23;;
66118;SDS011;52912;48.564;9.302;2023-08-06T04:44:22;2.47;;;1.20;;
66118;SDS011;52912;48.564;9.302;2023-08-06T04:46:49;3.40;;;1.20;;
66118;SDS011;52912;48.564;9.302;2023-08-06T04:49:15;3.95;;;1.55;;
66118;SDS011;52912;48.564;9.302;2023-08-06T04:51:40;3.63;;;1.50;;
66118;SDS011;52912;48.564;9.302;2023-08-06T04:54:06;4.35;;;1.77;;
66118;SDS011;52912;48.564;9.302;2023-08-06T04:56:31;5.10;;;1.42;;
66118;SDS011;52912;48.564;9.302;2023-08-06T04:58:57;2.50;;;1.30;;
66118;SDS011;52912;48.564;9.302;2023-08-06T05:01:22;4.10;;;1.67;;
66118;SDS011;52912;48.564;9.302;2023-08-06T05:03:49;2.20;;;1.20;;
66118;SDS011;52912;48.564;9.302;2023-08-06T05:06:14;4.15;;;1.33;;
66118;SDS011;52912;48.564;9.302;2023-08-06T05:08:40;3.10;;;1.20;;
66118;SDS011;52912;48.564;9.302;2023-08-06T05:11:05;3.78;;;1.30;;
66118;SDS011;52912;48.564;9.302;2023-08-06T05:13:31;3.80;;;1.40;;
66118;SDS011;52912;48.564;9.302;2023-08-06T05:15:56;2.65;;;1.40;;
66118;SDS011;52912;48.564;9.302;2023-08-06T05:18:21;3.45;;;1.10;;
66118;SDS011;52912;48.564;9.302;2023-08-06T05:20:48;3.40;;;1.30;;
66118;SDS011;52912;48.564;9.302;2023-08-06T05:23:14;2.97;;;1.30;;
66118;SDS011;52912;48.564;9.302;2023-08-06T05:25:40;6.28;;;1.30;;
66118;SDS011;52912;48.564;9.302;2023-08-06T05:28:05;1.52;;;1.13;;
66118;SDS011;52912;48.564;9.302;2023-08-06T05:30:31;4.68;;;1.40;;
66118;SDS011;52912;48.564;9.302;2023-08-06T05:32:57;1.90;;;1.10;;
66118;SDS011;52912;48.564;9.302;2023-08-06T05:35:22;2.55;;;1.17;;
66118;SDS011;52912;48.564;9.302;2023-08-06T05:37:50;3.40;;;1.40;;
66118;SDS011;52912;48.564;9.302;2023-08-06T05:40:16;2.80;;;1.10;;
66118;SDS011;52912;48.564;9.302;2023-08-06T05:42:41;2.47;;;1.10;;
66118;SDS011;52912;48.564;9.302;2023-08-06T05:45:07;1.98;;;1.10;;
66118;SDS011;52912;48.564;9.302;2023-08-06T05:47:33;3.80;;;1.13;;
66118;SDS011;52912;48.564;9.302;2023-08-06T05:49:59;2.03;;;1.10;;
66118;SDS011;52912;48.564;9.302;2023-08-06T05:52:24;1.92;;;1.17;;
66118;SDS011;52912;48.564;9.302;2023-08-06T05:54:51;2.28;;;1.30;;
66118;SDS011;52912;48.564;9.302;2023-08-06T05:57:17;2.28;;;1.10;;
66118;SDS011;52912;48.564;9.302;2023-08-06T05:59:42;3.15;;;1.23;;
66118;SDS011;52912;48.564;9.302;2023-08-06T06:02:08;2.70;;;1.13;;
66118;SDS011;52912;48.564;9.302;2023-08-06T06:04:33;1.58;;;0.95;;
66118;SDS011;52912;48.564;9.302;2023-08-06T06:06:59;2.33;;;0.98;;
66118;SDS011;52912;48.564;9.302;2023-08-06T06:09:24;2.60;;;1.25;;
66118;SDS011;52912;48.564;9.302;2023-08-06T06:11:51;1.95;;;1.02;;
66118;SDS011;52912;48.564;9.302;2023-08-06T06:14:17;4.40;;;0.88;;
66118;SDS011;52912;48.564;9.302;2023-08-06T06:16:42;1.88;;;0.82;;
66118;SDS011;52912;48.564;9.302;2023-08-06T06:19:08;2.45;;;0.88;;
66118;SDS011;52912;48.564;9.302;2023-08-06T06:21:33;2.70;;;0.90;;
66118;SDS011;52912;48.564;9.302;2023-08-06T06:23:59;2.22;;;0.70;;
66118;SDS011;52912;48.564;9.302;2023-08-06T06:26:24;1.38;;;0.80;;
66118;SDS011;52912;48.564;9.302;2023-08-06T06:28:51;1.50;;;1.00;;
66118;SDS011;52912;48.564;9.302;2023-08-06T06:31:17;1.13;;;0.88;;
66118;SDS011;52912;48.564;9.302;2023-08-06T06:33:42;0.90;;;0.60;;
66118;SDS011;52912;48.564;9.302;2023-08-06T06:36:07;2.03;;;1.00;;
66118;SDS011;52912;48.564;9.302;2023-08-06T06:38:33;0.73;;;0.73;;
66118;SDS011;52912;48.564;9.302;2023-08-06T06:40:59;1.10;;;0.75;;
66118;SDS011;52912;48.564;9.302;2023-08-06T06:43:25;2.28;;;0.90;;
66118;SDS011;52912;48.564;9.302;2023-08-06T06:45:55;1.25;;;0.75;;
66118;SDS011;52912;48.564;9.302;2023-08-06T06:48:21;1.77;;;0.60;;
66118;SDS011;52912;48.564;9.302;2023-08-06T06:50:47;1.60;;;0.90;;
66118;SDS011;52912;48.564;9.302;2023-08-06T06:53:12;2.45;;;0.88;;
66118;SDS011;52912;48.564;9.302;2023-08-06T06:55:38;1.30;;;0.70;;
66118;SDS011;52912;48.564;9.302;2023-08-06T06:58:03;4.18;;;0.80;;
66118;SDS011;52912;48.564;9.302;2023-08-06T07:00:28;2.58;;;0.77;;
66118;SDS011;52912;48.564;9.302;2023-08-06T07:02:55;1.38;;;0.80;;
66118;SDS011;52912;48.564;9.302;2023-08-06T07:05:21;2.72;;;0.80;;
66118;SDS011;52912;48.564;9.302;2023-08-06T07:07:46;4.28;;;0.90;;
66118;SDS011;52912;48.564;9.302;2023-08-06T07:10:12;0.75;;;0.60;;
66118;SDS011;52912;48.564;9.302;2023-08-06T07:12:37;3.10;;;0.60;;
66118;SDS011;52912;48.564;9.302;2023-08-06T07:15:03;0.50;;;0.50;;
66118;SDS011;52912;48.564;9.302;2023-08-06T07:17:29;1.10;;;0.70;;
66118;SDS011;52912;48.564;9.302;2023-08-06T07:19:56;1.88;;;0.63;;
66118;SDS011;52912;48.564;9.302;2023-08-06T07:22:21;1.75;;;0.95;;
66118;SDS011;52912;48.564;9.302;2023-08-06T07:24:47;4.60;;;0.70;;
66118;SDS011;52912;48.564;9.302;2023-08-06T07:27:12;0.90;;;0.60;;
66118;SDS011;52912;48.564;9.302;2023-08-06T07:29:38;2.17;;;0.70;;
66118;SDS011;52912;48.564;9.302;2023-08-06T07:32:03;1.90;;;0.70;;
66118;SDS011;52912;48.564;9.302;2023-08-06T07:34:31;1.05;;;0.70;;
66118;SDS011;52912;48.564;9.302;2023-08-06T07:36:58;2.47;;;0.80;;
66118;SDS011;52912;48.564;9.302;2023-08-06T07:39:23;2.03;;;0.80;;
66118;SDS011;52912;48.564;9.302;2023-08-06T07:41:49;1.98;;;0.60;;
66118;SDS011;52912;48.564;9.302;2023-08-06T07:44:14;1.45;;;0.82;;
66118;SDS011;52912;48.564;9.302;2023-08-06T07:46:40;0.40;;;0.40;;
66118;SDS011;52912;48.564;9.302;2023-08-06T07:49:05;2.90;;;0.75;;
66118;SDS011;52912;48.564;9.302;2023-08-06T07:51:31;0.85;;;0.60;;
66118;SDS011;52912;48.564;9.302;2023-08-06T07:53:57;0.93;;;0.40;;
66118;SDS011;52912;48.564;9.302;2023-08-06T07:56:23;1.17;;;0.52;;
66118;SDS011;52912;48.564;9.302;2023-08-06T07:58:48;0.77;;;0.60;;
66118;SDS011;52912;48.564;9.302;2023-08-06T08:01:14;1.83;;;0.40;;
66118;SDS011;52912;48.564;9.302;2023-08-06T08:03:39;1.15;;;0.68;;
66118;SDS011;52912;48.564;9.302;2023-08-06T08:06:05;2.85;;;0.77;;
66118;SDS011;52912;48.564;9.302;2023-08-06T08:08:30;1.65;;;0.57;;
66118;SDS011;52912;48.564;9.302;2023-08-06T08:10:57;1.33;;;0.60;;
66118;SDS011;52912;48.564;9.302;2023-08-06T08:13:22;1.67;;;0.50;;
66118;SDS011;52912;48.564;9.302;2023-08-06T08:15:48;1.95;;;0.45;;
66118;SDS011;52912;48.564;9.302;2023-08-06T08:18:13;0.60;;;0.50;;
66118;SDS011;52912;48.564;9.302;2023-08-06T08:20:39;0.20;;;0.20;;
66118;SDS011;52912;48.564;9.302;2023-08-06T08:23:04;0.38;;;0.38;;
66118;SDS011;52912;48.564;9.302;2023-08-06T08:25:30;0.28;;;0.28;;
66118;SDS011;52912;48.564;9.302;2023-08-06T08:27:56;0.80;;;0.40;;
66118;SDS011;52912;48.564;9.302;2023-08-06T08:30:22;0.32;;;0.30;;
66118;SDS011;52912;48.564;9.302;2023-08-06T08:32:47;2.08;;;0.40;;
66118;SDS011;52912;48.564;9.302;2023-08-06T08:35:13;1.35;;;0.60;;
66118;SDS011;52912;48.564;9.302;2023-08-06T08:37:39;0.50;;;0.50;;
66118;SDS011;52912;48.564;9.302;2023-08-06T08:40:04;0.30;;;0.20;;
66118;SDS011;52912;48.564;9.302;2023-08-06T08:42:31;0.52;;;0.40;;
66118;SDS011;52912;48.564;9.302;2023-08-06T08:44:58;0.40;;;0.40;;
66118;SDS011;52912;48.564;9.302;2023-08-06T08:47:24;2.03;;;0.50;;
66118;SDS011;52912;48.564;9.302;2023-08-06T08:49:49;1.08;;;0.70;;
66118;SDS011;52912;48.564;9.302;2023-08-06T08:52:19;1.17;;;0.40;;
66118;SDS011;52912;48.564;9.302;2023-08-06T08:54:46;0.30;;;0.30;;
66118;SDS011;52912;48.564;9.302;2023-08-06T08:57:13;0.57;;;0.32;;
66118;SDS011;52912;48.564;9.302;2023-08-06T08:59:38;0.70;;;0.60;;
66118;SDS011;52912;48.564;9.302;2023-08-06T09:02:05;0.57;;;0.32;;
66118;SDS011;52912;48.564;9.302;2023-08-06T09:04:33;0.55;;;0.30;;
66118;SDS011;52912;48.564;9.302;2023-08-06T09:06:59;0.25;;;0.25;;
66118;SDS011;52912;48.564;9.302;2023-08-06T09:09:26;1.05;;;0.70;;
66118;SDS011;52912;48.564;9.302;2023-08-06T09:11:53;0.57;;;0.30;;
66118;SDS011;52912;48.564;9.302;2023-08-06T09:14:24;0.63;;;0.40;;
66118;SDS011;52912;48.564;9.302;2023-08-06T09:16:50;0.20;;;0.20;;
66118;SDS011;52912;48.564;9.302;2023-08-06T09:19:17;0.30;;;0.30;;
66118;SDS011;52912;48.564;9.302;2023-08-06T09:21:43;0.30;;;0.30;;
66118;SDS011;52912;48.564;9.302;2023-08-06T09:24:10;1.02;;;0.38;;
66118;SDS011;52912;48.564;9.302;2023-08-06T09:26:36;0.20;;;0.20;;
66118;SDS011;52912;48.564;9.302;2023-08-06T09:29:03;0.30;;;0.30;;
66118;SDS011;52912;48.564;9.302;2023-08-06T09:31:32;0.88;;;0.20;;
66118;SDS011;52912;48.564;9.302;2023-08-06T09:33:58;0.30;;;0.30;;
66118;SDS011;52912;48.564;9.302;2023-08-06T09:36:26;0.10;;;0.10;;
66118;SDS011;52912;48.564;9.302;2023-08-06T09:38:52;1.25;;;0.40;;
66118;SDS011;52912;48.564;9.302;2023-08-06T09:41:25;1.70;;;0.30;;
66118;SDS011;52912;48.564;9.302;2023-08-06T09:43:51;0.73;;;0.40;;
66118;SDS011;52912;48.564;9.302;2023-08-06T09:46:16;0.30;;;0.30;;
66118;SDS011;52912;48.564;9.302;2023-08-06T09:48:44;0.40;;;0.30;;
66118;SDS011;52912;48.564;9.302;2023-08-06T09:51:10;2.55;;;0.50;;
66118;SDS011;52912;48.564;9.302;2023-08-06T09:53:39;0.28;;;0.28;;
66118;SDS011;52912;48.564;9.302;2023-08-06T09:56:05;1.25;;;0.22;;
66118;SDS011;52912;48.564;9.302;2023-08-06T09:58:31;0.25;;;0.25;;
66118;SDS011;52912;48.564;9.302;2023-08-06T10:00:57;0.32;;;0.32;;
66118;SDS011;52912;48.564;9.302;2023-08-06T10:03:24;0.35;;;0.25;;
66118;SDS011;52912;48.564;9.302;2023-08-06T10:05:50;0.52;;;0.35;;
66118;SDS011;52912;48.564;9.302;2023-08-06T10:08:16;0.35;;;0.30;;
66118;SDS011;52912;48.564;9.302;2023-08-06T10:10:43;1.25;;;0.40;;
66118;SDS011;52912;48.564;9.302;2023-08-06T10:13:09;0.63;;;0.30;;
66118;SDS011;52912;48.564;9.302;2023-08-06T10:15:36;1.75;;;0.30;;
66118;SDS011;52912;48.564;9.302;2023-08-06T10:18:04;0.28;;;0.28;;
66118;SDS011;52912;48.564;9.302;2023-08-06T10:20:32;0.73;;;0.30;;
66118;SDS011;52912;48.564;9.302;2023-08-06T10:22:59;0.20;;;0.20;;
66118;SDS011;52912;48.564;9.302;2023-08-06T10:25:26;1.05;;;0.45;;
66118;SDS011;52912;48.564;9.302;2023-08-06T10:30:23;0.40;;;0.20;;
66118;SDS011;52912;48.564;9.302;2023-08-06T10:32:49;0.30;;;0.30;;
66118;SDS011;52912;48.564;9.302;2023-08-06T10:35:27;0.20;;;0.20;;
66118;SDS011;52912;48.564;9.302;2023-08-06T10:37:54;0.53;;;0.30;;
66118;SDS011;52912;48.564;9.302;2023-08-06T10:40:23;0.30;;;0.30;;
66118;SDS011;52912;48.564;9.302;2023-08-06T10:42:48;0.75;;;0.50;;
66118;SDS011;52912;48.564;9.302;2023-08-06T10:45:16;0.30;;;0.30;;
66118;SDS011;52912;48.564;9.302;2023-08-06T10:47:42;0.30;;;0.30;;
66118;SDS011;52912;48.564;9.302;2023-08-06T10:50:10;1.25;;;0.50;;
66118;SDS011;52912;48.564;9.302;2023-08-06T10:52:36;0.70;;;0.70;;
66118;SDS011;52912;48.564;9.302;2023-08-06T10:55:02;0.52;;;0.50;;
66118;SDS011;52912;48.564;9.302;2023-08-06T10:57:28;0.30;;;0.30;;
66118;SDS011;52912;48.564;9.302;2023-08-06T10:59:53;0.20;;;0.20;;
66118;SDS011;52912;48.564;9.302;2023-08-06T11:02:20;1.50;;;0.50;;
66118;SDS011;52912;48.564;9.302;2023-08-06T11:04:46;0.30;;;0.30;;
66118;SDS011;52912;48.564;9.302;2023-08-06T11:07:13;0.28;;;0.28;;
66118;SDS011;52912;48.564;9.302;2023-08-06T11:09:39;0.32;;;0.32;;
66118;SDS011;52912;48.564;9.302;2023-08-06T11:12:08;0.60;;;0.40;;
66118;SDS011;52912;48.564;9.302;2023-08-06T11:14:34;0.63;;;0.50;;
66118;SDS011;52912;48.564;9.302;2023-08-06T11:17:00;0.55;;;0.43;;
66118;SDS011;52912;48.564;9.302;2023-08-06T11:19:27;0.20;;;0.20;;
66118;SDS011;52912;48.564;9.302;2023-08-06T11:21:52;0.40;;;0.40;;
66118;SDS011;52912;48.564;9.302;2023-08-06T11:24:19;0.43;;;0.32;;
66118;SDS011;52912;48.564;9.302;2023-08-06T11:26:45;1.35;;;0.30;;
66118;SDS011;52912;48.564;9.302;2023-08-06T11:29:10;0.68;;;0.40;;
66118;SDS011;52912;48.564;9.302;2023-08-06T11:31:36;0.32;;;0.30;;
66118;SDS011;52912;48.564;9.302;2023-08-06T11:34:01;0.98;;;0.40;;
66118;SDS011;52912;48.564;9.302;2023-08-06T11:36:32;0.47;;;0.47;;
66118;SDS011;52912;48.564;9.302;2023-08-06T11:38:59;0.40;;;0.40;;
66118;SDS011;52912;48.564;9.302;2023-08-06T11:41:25;0.30;;;0.30;;
66118;SDS011;52912;48.564;9.302;2023-08-06T11:43:52;0.30;;;0.30;;
66118;SDS011;52912;48.564;9.302;2023-08-06T11:46:18;0.20;;;0.20;;
66118;SDS011;52912;48.564;9.302;2023-08-06T11:48:50;0.45;;;0.30;;
66118;SDS011;52912;48.564;9.302;2023-08-06T11:51:16;1.98;;;0.32;;
66118;SDS011;52912;48.564;9.302;2023-08-06T11:53:43;0.57;;;0.30;;
66118;SDS011;52912;48.564;9.302;2023-08-06T11:56:13;2.42;;;0.47;;
66118;SDS011;52912;48.564;9.302;2023-08-06T11:58:40;0.32;;;0.32;;
66118;SDS011;52912;48.564;9.302;2023-08-06T12:01:06;0.35;;;0.35;;
66118;SDS011;52912;48.564;9.302;2023-08-06T12:03:31;0.40;;;0.40;;
66118;SDS011;52912;48.564;9.302;2023-08-06T12:05:56;0.52;;;0.40;;
66118;SDS011;52912;48.564;9.302;2023-08-06T12:08:25;0.30;;;0.30;;
66118;SDS011;52912;48.564;9.302;2023-08-06T12:10:53;2.60;;;0.50;;
66118;SDS011;52912;48.564;9.302;2023-08-06T12:13:18;0.30;;;0.30;;
66118;SDS011;52912;48.564;9.302;2023-08-06T12:15:44;0.75;;;0.40;;
66118;SDS011;52912;48.564;9.302;2023-08-06T12:18:10;1.25;;;0.35;;
66118;SDS011;52912;48.564;9.302;2023-08-06T12:20:35;0.45;;;0.40;;
66118;SDS011;52912;48.564;9.302;2023-08-06T12:23:01;2.85;;;0.70;;
66118;SDS011;52912;48.564;9.302;2023-08-06T12:25:26;0.52;;;0.52;;
66118;SDS011;52912;48.564;9.302;2023-08-06T12:27:53;1.00;;;0.75;;
66118;SDS011;52912;48.564;9.302;2023-08-06T12:30:19;0.50;;;0.50;;
66118;SDS011;52912;48.564;9.302;2023-08-06T12:32:44;0.60;;;0.60;;
66118;SDS011;52912;48.564;9.302;2023-08-06T12:35:10;1.05;;;0.63;;
66118;SDS011;52912;48.564;9.302;2023-08-06T12:37:35;0.63;;;0.60;;
66118;SDS011;52912;48.564;9.302;2023-08-06T12:40:01;0.65;;;0.65;;
66118;SDS011;52912;48.564;9.302;2023-08-06T12:42:27;2.60;;;0.95;;
66118;SDS011;52912;48.564;9.302;2023-08-06T12:44:53;0.70;;;0.70;;
66118;SDS011;52912;48.564;9.302;2023-08-06T12:47:19;1.02;;;0.93;;
66118;SDS011;52912;48.564;9.302;2023-08-06T12:49:44;1.88;;;1.40;;
66118;SDS011;52912;48.564;9.302;2023-08-06T12:52:10;2.28;;;1.13;;
66118;SDS011;52912;48.564;9.302;2023-08-06T12:54:35;2.05;;;0.82;;
66118;SDS011;52912;48.564;9.302;2023-08-06T12:57:01;2.60;;;1.10;;
66118;SDS011;52912;48.564;9.302;2023-08-06T12:59:26;1.98;;;1.10;;
66118;SDS011;52912;48.564;9.302;2023-08-06T13:01:53;2.25;;;1.02;;
66118;SDS011;52912;48.564;9.302;2023-08-06T13:04:19;2.28;;;1.02;;
66118;SDS011;52912;48.564;9.302;2023-08-06T13:06:44;1.77;;;1.00;;
66118;SDS011;52912;48.564;9.302;2023-08-06T13:09:10;1.00;;;0.88;;
66118;SDS011;52912;48.564;9.302;2023-08-06T13:11:35;0.95;;;0.85;;
66118;SDS011;52912;48.564;9.302;2023-08-06T13:14:04;0.90;;;0.90;;
66118;SDS011;52912;48.564;9.302;2023-08-06T13:16:33;0.60;;;0.60;;
66118;SDS011;52912;48.564;9.302;2023-08-06T13:19:09;0.70;;;0.70;;
66118;SDS011;52912;48.564;9.302;2023-08-06T13:21:57;0.75;;;0.70;;
66118;SDS011;52912;48.564;9.302;2023-08-06T13:24:25;0.80;;;0.80;;
66118;SDS011;52912;48.564;9.302;2023-08-06T13:26:51;0.70;;;0.70;;
66118;SDS011;52912;48.564;9.302;2023-08-06T13:29:16;0.75;;;0.75;;
66118;SDS011;52912;48.564;9.302;2023-08-06T13:31:42;1.50;;;0.80;;
66118;SDS011;52912;48.564;9.302;2023-08-06T13:34:08;0.70;;;0.70;;
66118;SDS011;52912;48.564;9.302;2023-08-06T13:36:38;1.25;;;0.98;;
66118;SDS011;52912;48.564;9.302;2023-08-06T13:39:04;1.38;;;0.80;;
66118;SDS011;52912;48.564;9.302;2023-08-06T13:41:30;0.80;;;0.80;;
66118;SDS011;52912;48.564;9.302;2023-08-06T13:43:55;0.77;;;0.77;;
66118;SDS011;52912;48.564;9.302;2023-08-06T13:46:21;1.50;;;0.85;;
66118;SDS011;52912;48.564;9.302;2023-08-06T13:48:47;0.88;;;0.60;;
66118;SDS011;52912;48.564;9.302;2023-08-06T13:51:14;0.52;;;0.52;;
66118;SDS011;52912;48.564;9.302;2023-08-06T13:53:40;2.47;;;0.68;;
66118;SDS011;52912;48.564;9.302;2023-08-06T13:56:06;0.90;;;0.60;;
66118;SDS011;52912;48.564;9.302;2023-08-06T13:58:32;0.70;;;0.60;;
66118;SDS011;52912;48.564;9.302;2023-08-06T14:00:58;0.50;;;0.50;;
66118;SDS011;52912;48.564;9.302;2023-08-06T14:03:24;0.75;;;0.60;;
66118;SDS011;52912;48.564;9.302;2023-08-06T14:05:49;0.55;;;0.55;;
66118;SDS011;52912;48.564;9.302;2023-08-06T14:08:16;0.60;;;0.60;;
66118;SDS011;52912;48.564;9.302;2023-08-06T14:10:42;2.17;;;0.70;;
66118;SDS011;52912;48.564;9.302;2023-08-06T14:13:07;3.83;;;0.75;;
66118;SDS011;52912;48.564;9.302;2023-08-06T14:15:33;3.03;;;0.90;;
66118;SDS011;52912;48.564;9.302;2023-08-06T14:17:58;0.50;;;0.50;;
66118;SDS011;52912;48.564;9.302;2023-08-06T14:20:27;0.43;;;0.43;;
66118;SDS011;52912;48.564;9.302;2023-08-06T14:22:52;0.68;;;0.65;;
66118;SDS011;52912;48.564;9.302;2023-08-06T14:25:31;0.60;;;0.52;;
66118;SDS011;52912;48.564;9.302;2023-08-06T14:27:56;0.95;;;0.73;;
66118;SDS011;52912;48.564;9.302;2023-08-06T14:30:22;2.63;;;0.68;;
66118;SDS011;52912;48.564;9.302;2023-08-06T14:32:47;0.60;;;0.60;;
66118;SDS011;52912;48.564;9.302;2023-08-06T14:35:26;0.50;;;0.50;;
66118;SDS011;52912;48.564;9.302;2023-08-06T14:37:52;0.60;;;0.60;;
66118;SDS011;52912;48.564;9.302;2023-08-06T14:40:18;1.20;;;0.60;;
66118;SDS011;52912;48.564;9.302;2023-08-06T14:42:44;0.60;;;0.60;;
66118;SDS011;52912;48.564;9.302;2023-08-06T14:45:10;0.95;;;0.82;;